Time;durP1;ratioP1;P1;durP2;ratioP2;P2;SDS_P1;SDS_P2;PMS_P1;PMS_P2;Temp;Humidity;BMP_temperature;BMP_pressure;BME280_temperature;BME280_humidity;BME280_pressure;Samples;Min_cycle;Max_cycle;Signal;HPM_P1;HPM_P2
2021/01/21 00:01:20;;;;;;;13.07;8.10;;;;;;;-2.73;89.20;95500.25;5018686;28;20128;-64
2021/01/21 00:03:45;;;;;;;15.02;8.15;;;;;;;-2.68;88.62;95508.16;5022514;28;20053;-62
2021/01/21 00:06:11;;;;;;;14.38;8.57;;;;;;;-2.99;88.49;95511.66;5016191;28;20868;-62
2021/01/21 00:08:36;;;;;;;18.33;9.20;;;;;;;-3.41;90.37;95500.41;5022858;28;20055;-64
2021/01/21 00:11:02;;;;;;;17.13;8.65;;;;;;;-3.42;90.92;95498.84;5023048;28;20037;-62
2021/01/21 00:13:28;;;;;;;13.93;8.95;;;;;;;-3.41;91.29;95497.72;5002068;28;20048;-65
2021/01/21 00:15:53;;;;;;;18.10;9.23;;;;;;;-3.24;91.62;95491.69;5023403;28;20440;-63
2021/01/21 00:18:19;;;;;;;17.23;8.80;;;;;;;-3.32;91.41;95497.78;5018186;28;20050;-63
2021/01/21 00:20:44;;;;;;;14.50;9.30;;;;;;;-3.34;91.46;95489.28;5018711;28;20045;-63
2021/01/21 00:23:10;;;;;;;18.17;9.75;;;;;;;-3.34;91.96;95489.28;5016951;28;20061;-62
2021/01/21 00:25:35;;;;;;;15.27;8.65;;;;;;;-3.41;91.74;95495.06;5020993;28;20037;-62
2021/01/21 00:28:00;;;;;;;17.65;9.38;;;;;;;-3.10;91.06;95499.63;5023454;28;20065;-61
2021/01/21 00:30:26;;;;;;;16.35;8.60;;;;;;;-2.86;90.41;95493.91;5015194;28;20052;-64
2021/01/21 00:32:51;;;;;;;14.63;8.13;;;;;;;-2.89;89.72;95483.81;5023075;28;20874;-61
2021/01/21 00:35:18;;;;;;;17.27;9.02;;;;;;;-3.03;90.40;95493.84;5018117;28;20037;-65
2021/01/21 00:37:44;;;;;;;14.45;8.73;;;;;;;-2.91;90.45;95499.41;5031959;28;20442;-62
2021/01/21 00:40:10;;;;;;;16.63;9.18;;;;;;;-2.90;90.52;95509.81;5016468;28;20033;-62
2021/01/21 00:42:36;;;;;;;22.70;9.82;;;;;;;-2.88;90.48;95502.25;5022409;28;20080;-62
2021/01/21 00:45:01;;;;;;;14.98;8.80;;;;;;;-2.91;90.57;95491.38;5020324;28;20537;-63
2021/01/21 00:47:27;;;;;;;17.70;9.57;;;;;;;-3.15;89.94;95489.03;5017116;28;20503;-67
2021/01/21 00:49:52;;;;;;;16.40;10.23;;;;;;;-3.52;91.58;95477.69;5020499;28;20042;-63
2021/01/21 00:52:18;;;;;;;17.50;10.50;;;;;;;-3.87;92.84;95483.59;5017523;28;20163;-62
2021/01/21 00:54:43;;;;;;;18.17;9.70;;;;;;;-3.97;93.21;95477.69;5023388;28;20499;-63
2021/01/21 00:57:09;;;;;;;20.98;9.95;;;;;;;-3.74;93.07;95481.94;5015700;28;20048;-63
2021/01/21 00:59:34;;;;;;;17.63;9.23;;;;;;;-3.58;93.03;95479.69;5021902;28;20064;-63
2021/01/21 01:02:00;;;;;;;17.23;9.95;;;;;;;-3.16;91.86;95484.78;5022202;28;20033;-61
2021/01/21 01:04:26;;;;;;;17.80;9.43;;;;;;;-2.99;90.64;95481.38;5017742;28;20064;-63
2021/01/21 01:06:51;;;;;;;17.77;8.65;;;;;;;-2.93;90.83;95464.88;5022244;28;20037;-63
2021/01/21 01:09:17;;;;;;;16.38;8.85;;;;;;;-2.65;89.53;95475.34;5020214;28;20041;-63
2021/01/21 01:11:42;;;;;;;15.23;8.32;;;;;;;-2.70;89.35;95472.84;5024614;28;20037;-63
2021/01/21 01:14:07;;;;;;;20.35;8.48;;;;;;;-2.63;89.47;95464.31;5018000;28;20530;-64
2021/01/21 01:16:33;;;;;;;16.60;8.52;;;;;;;-2.59;89.47;95481.34;5031943;28;20116;-62
2021/01/21 01:18:58;;;;;;;12.43;7.50;;;;;;;-2.62;89.05;95477.41;5024880;28;20038;-62
2021/01/21 01:21:24;;;;;;;19.33;8.00;;;;;;;-2.66;89.48;95489.09;5017990;28;20056;-64
2021/01/21 01:23:49;;;;;;;15.65;8.18;;;;;;;-2.44;88.74;95498.91;5021520;28;20056;-63
2021/01/21 01:26:15;;;;;;;14.35;8.00;;;;;;;-2.54;88.68;95489.25;5017242;28;20091;-64
2021/01/21 01:28:42;;;;;;;12.85;7.72;;;;;;;-2.48;88.89;95485.34;5022150;28;20473;-61
2021/01/21 01:31:08;;;;;;;15.07;8.00;;;;;;;-2.51;88.62;95491.31;5016502;28;20033;-62
2021/01/21 01:33:33;;;;;;;14.75;7.70;;;;;;;-2.58;88.71;95496.34;5021778;28;20152;-64
2021/01/21 01:35:59;;;;;;;15.50;8.23;;;;;;;-2.60;88.81;95507.38;5021473;28;20045;-63
2021/01/21 01:38:24;;;;;;;10.82;6.72;;;;;;;-2.47;89.10;95502.22;5016142;28;20062;-64
2021/01/21 01:40:52;;;;;;;13.50;8.32;;;;;;;-2.38;88.69;95508.38;5021325;28;20060;-62
2021/01/21 01:43:18;;;;;;;13.45;8.20;;;;;;;-2.51;87.98;95510.09;5012699;28;20069;-63
2021/01/21 01:45:44;;;;;;;11.35;7.40;;;;;;;-2.60;88.46;95512.75;5020806;28;20076;-61
2021/01/21 01:48:09;;;;;;;13.15;7.35;;;;;;;-2.42;88.27;95518.94;5016101;28;20471;-64
2021/01/21 01:50:35;;;;;;;13.77;7.93;;;;;;;-2.41;87.46;95509.81;5003582;28;20049;-63
2021/01/21 01:53:00;;;;;;;10.85;6.85;;;;;;;-2.41;87.06;95501.75;5021204;28;20033;-64
2021/01/21 01:55:26;;;;;;;13.82;7.05;;;;;;;-2.52;87.30;95495.91;4998223;28;20064;-61
2021/01/21 01:57:53;;;;;;;11.88;7.13;;;;;;;-2.88;88.35;95488.06;5021184;28;20431;-62
2021/01/21 02:00:19;;;;;;;12.57;8.10;;;;;;;-3.28;90.28;95496.88;5015536;28;20049;-63
2021/01/21 02:02:49;;;;;;;15.40;7.82;;;;;;;-3.52;91.70;95486.50;5012512;28;20034;-64
2021/01/21 02:05:17;;;;;;;19.25;9.45;;;;;;;-3.70;92.69;95490.94;5016696;28;20091;-63
2021/01/21 02:07:44;;;;;;;18.52;10.48;;;;;;;-3.71;93.29;95476.00;5019732;28;20110;-63
2021/01/21 02:10:12;;;;;;;16.10;10.00;;;;;;;-3.52;93.04;95470.44;5011159;28;20049;-63
2021/01/21 02:12:46;;;;;;;19.15;11.68;;;;;;;-3.33;92.99;95461.38;5019012;28;20128;-63
2021/01/21 02:15:33;;;;;;;17.27;9.40;;;;;;;-3.10;92.80;95456.75;4991613;28;20049;-63
2021/01/21 02:18:12;;;;;;;14.38;8.52;;;;;;;-2.97;92.19;95463.13;5014739;28;20140;-63
2021/01/21 02:21:01;;;;;;;23.37;13.33;;;;;;;-3.17;91.48;95475.16;5018888;28;20072;-63
2021/01/21 02:23:48;;;;;;;25.80;15.07;;;;;;;-3.21;91.53;95461.59;5016163;28;20045;-62
2021/01/21 02:26:44;;;;;;;16.73;10.07;;;;;;;-3.29;91.91;95457.78;5016531;28;20053;-62
2021/01/21 02:29:20;;;;;;;15.93;9.75;;;;;;;-3.27;92.32;95458.28;4971586;28;20049;-62
2021/01/21 02:32:04;;;;;;;13.93;8.45;;;;;;;-3.23;92.09;95461.13;5014152;28;20049;-63
2021/01/21 02:34:49;;;;;;;14.68;8.80;;;;;;;-3.15;91.90;95468.44;5019888;28;20042;-61
2021/01/21 02:37:23;;;;;;;13.77;8.60;;;;;;;-3.18;91.95;95462.91;5015220;28;20060;-63
2021/01/21 02:39:49;;;;;;;14.10;8.18;;;;;;;-3.00;91.59;95464.53;5013448;28;20037;-64
2021/01/21 02:42:16;;;;;;;13.00;8.10;;;;;;;-3.22;92.13;95470.75;4998011;28;20050;-63
2021/01/21 02:44:42;;;;;;;15.30;8.10;;;;;;;-3.09;92.27;95461.03;5012063;28;20049;-61
2021/01/21 02:47:08;;;;;;;12.48;7.90;;;;;;;-2.97;92.23;95469.28;5015357;28;20065;-63
2021/01/21 02:49:34;;;;;;;14.85;8.27;;;;;;;-2.74;91.87;95482.59;5016375;28;20128;-62
2021/01/21 02:51:59;;;;;;;13.73;7.40;;;;;;;-2.62;91.22;95485.47;5018782;28;20128;-63
2021/01/21 02:54:40;;;;;;;18.03;7.50;;;;;;;-2.41;90.56;95490.22;5013357;28;20042;-63
2021/01/21 02:57:11;;;;;;;11.98;6.72;;;;;;;-2.29;89.16;95487.72;5011806;28;20284;-64
2021/01/21 02:59:41;;;;;;;10.00;6.43;;;;;;;-2.35;89.50;95472.91;5027956;28;20045;-63
2021/01/21 03:02:09;;;;;;;16.52;7.90;;;;;;;-2.70;90.33;95470.94;5014501;28;20103;-62
2021/01/21 03:04:39;;;;;;;17.42;8.07;;;;;;;-2.81;90.87;95466.97;5005461;28;20551;-60
2021/01/21 03:07:06;;;;;;;;;;;;;;;-2.76;91.68;95466.81;5016415;28;20041;-61
2021/01/21 03:09:31;;;;;;;15.40;8.32;;;;;;;-2.66;91.56;95454.25;5019108;28;19956;-62
2021/01/21 03:12:16;;;;;;;11.95;7.47;;;;;;;-2.61;91.75;95449.53;5019480;28;20102;-64
2021/01/21 03:14:41;;;;;;;20.17;7.97;;;;;;;-2.53;90.58;95456.00;5020686;28;20538;-64
2021/01/21 03:17:07;;;;;;;15.15;8.73;;;;;;;-2.53;90.58;95453.31;5015310;28;20073;-64
2021/01/21 03:19:32;;;;;;;12.18;7.55;;;;;;;-2.53;91.06;95446.06;5008295;28;20119;-64
2021/01/21 03:21:58;;;;;;;11.98;7.53;;;;;;;-2.61;91.05;95435.31;5020241;28;20049;-64
2021/01/21 03:24:23;;;;;;;17.08;8.55;;;;;;;-2.63;91.62;95442.88;5013839;28;20446;-63
2021/01/21 03:26:49;;;;;;;10.93;7.20;;;;;;;-2.55;91.73;95453.63;5019777;28;20049;-63
2021/01/21 03:29:14;;;;;;;12.43;6.97;;;;;;;-2.27;90.65;95449.88;5016286;28;20041;-62
2021/01/21 03:31:39;;;;;;;11.07;7.35;;;;;;;-2.25;91.03;95451.16;5020683;28;20048;-62
2021/01/21 03:34:05;;;;;;;11.52;7.72;;;;;;;-2.18;90.26;95448.78;5016170;28;20136;-62
2021/01/21 03:36:30;;;;;;;16.58;8.05;;;;;;;-2.08;89.92;95445.00;5020685;28;20087;-62
2021/01/21 03:38:56;;;;;;;13.55;7.57;;;;;;;-2.01;89.85;95456.03;5023659;28;20049;-61
2021/01/21 03:41:21;;;;;;;12.07;6.60;;;;;;;-1.94;89.69;95472.44;5020299;28;20439;-62
2021/01/21 03:43:46;;;;;;;12.90;7.25;;;;;;;-1.87;89.64;95484.59;5018633;28;20057;-64
2021/01/21 03:46:12;;;;;;;15.02;8.05;;;;;;;-1.87;89.32;95488.09;5019313;28;20056;-62
2021/01/21 03:48:37;;;;;;;12.98;6.82;;;;;;;-1.80;89.08;95480.34;5023838;28;20044;-62
2021/01/21 03:51:03;;;;;;;11.60;6.70;;;;;;;-1.69;88.66;95474.63;5021245;28;20045;-62
2021/01/21 03:53:28;;;;;;;11.75;7.10;;;;;;;-1.61;87.75;95468.47;5022438;28;20072;-64
2021/01/21 03:55:54;;;;;;;11.05;6.47;;;;;;;-1.65;87.41;95462.97;5024184;28;20495;-64
2021/01/21 03:58:19;;;;;;;10.52;6.47;;;;;;;-1.73;87.79;95461.06;4993058;28;20037;-65
2021/01/21 04:00:44;;;;;;;12.63;6.97;;;;;;;-1.85;88.61;95461.72;5021351;28;20129;-63
2021/01/21 04:03:10;;;;;;;10.68;6.68;;;;;;;-1.93;88.88;95447.22;5015674;28;20124;-63
2021/01/21 04:05:35;;;;;;;9.07;6.35;;;;;;;-1.82;88.80;95446.88;5014394;28;20049;-61
2021/01/21 04:08:01;;;;;;;11.02;6.65;;;;;;;-1.72;88.60;95454.59;5025338;28;20120;-64
2021/01/21 04:10:26;;;;;;;8.73;6.30;;;;;;;-1.77;87.70;95466.28;5018978;28;20746;-63
2021/01/21 04:12:52;;;;;;;11.68;6.40;;;;;;;-1.47;87.45;95465.63;5024473;28;20033;-64
2021/01/21 04:15:17;;;;;;;10.60;6.80;;;;;;;-1.53;87.06;95467.69;5019302;28;20395;-65
2021/01/21 04:17:43;;;;;;;11.23;7.20;;;;;;;-1.42;87.15;95478.88;5023429;28;20786;-64
2021/01/21 04:20:09;;;;;;;11.27;6.78;;;;;;;-1.36;86.94;95486.44;5030988;28;20056;-63
2021/01/21 04:22:34;;;;;;;13.85;7.30;;;;;;;-1.57;87.23;95490.91;5040614;28;20060;-64
2021/01/21 04:25:00;;;;;;;13.55;6.97;;;;;;;-1.59;87.69;95458.97;5039967;28;20048;-63
2021/01/21 04:27:25;;;;;;;11.43;7.53;;;;;;;-1.61;87.87;95455.84;5018928;28;20052;-62
2021/01/21 04:29:51;;;;;;;9.52;6.00;;;;;;;-1.56;87.82;95444.16;5020162;28;20080;-63
2021/01/21 04:32:16;;;;;;;12.88;7.18;;;;;;;-1.90;89.03;95453.03;5008324;28;20050;-63
2021/01/21 04:34:42;;;;;;;12.93;7.30;;;;;;;-2.02;89.67;95450.97;5032018;28;20044;-64
2021/01/21 04:37:07;;;;;;;13.52;8.07;;;;;;;-1.97;90.04;95456.19;5021943;28;20050;-63
2021/01/21 04:39:32;;;;;;;13.50;6.80;;;;;;;-1.86;89.93;95459.34;5023359;28;20045;-63
2021/01/21 04:41:58;;;;;;;12.77;9.07;;;;;;;-1.90;89.99;95451.13;5024139;28;20053;-63
2021/01/21 04:44:23;;;;;;;13.38;8.45;;;;;;;-1.93;89.95;95441.03;5000162;28;20836;-65
2021/01/21 04:46:49;;;;;;;16.67;9.00;;;;;;;-1.79;89.19;95448.91;5018346;28;20116;-63
2021/01/21 04:49:15;;;;;;;14.75;9.13;;;;;;;-1.76;89.88;95442.94;5013249;28;20073;-64
2021/01/21 04:51:42;;;;;;;16.73;8.93;;;;;;;-1.63;89.57;95449.22;5016522;28;20049;-65
2021/01/21 04:54:07;;;;;;;13.07;7.95;;;;;;;-1.67;89.40;95446.38;5000232;28;20050;-62
2021/01/21 04:56:39;;;;;;;14.23;8.43;;;;;;;-1.86;89.82;95449.38;5021606;28;20045;-64
2021/01/21 04:59:09;;;;;;;15.52;8.05;;;;;;;-1.72;89.80;95454.59;5018797;28;20045;-62
2021/01/21 05:01:35;;;;;;;15.43;7.88;;;;;;;-1.59;89.50;95460.88;5019153;28;20089;-63
2021/01/21 05:04:01;;;;;;;13.80;6.85;;;;;;;-1.60;89.36;95454.75;4995613;28;20053;-63
2021/01/21 05:06:27;;;;;;;14.98;8.20;;;;;;;-1.83;89.85;95459.50;5006272;28;20045;-63
2021/01/21 05:08:53;;;;;;;11.00;6.78;;;;;;;-1.84;90.04;95462.50;5017970;28;20069;-63
2021/01/21 05:11:18;;;;;;;13.38;7.38;;;;;;;-1.62;90.11;95472.25;4999392;28;20054;-64
2021/01/21 05:13:44;;;;;;;16.20;8.07;;;;;;;-1.44;89.42;95481.06;5026307;28;20049;-63
2021/01/21 05:16:09;;;;;;;9.93;6.65;;;;;;;-1.38;89.30;95477.91;5017624;28;20041;-62
2021/01/21 05:18:36;;;;;;;15.45;7.72;;;;;;;-1.28;88.64;95487.50;5014439;28;20400;-63
2021/01/21 05:21:07;;;;;;;13.13;7.82;;;;;;;-1.29;88.52;95479.81;5016831;28;20045;-63
2021/01/21 05:23:33;;;;;;;11.10;7.57;;;;;;;-1.33;88.39;95487.72;5020437;28;20049;-62
2021/01/21 05:25:59;;;;;;;12.00;7.45;;;;;;;-1.28;89.75;95484.03;5010239;28;20041;-62
2021/01/21 05:28:27;;;;;;;14.18;8.20;;;;;;;-1.23;89.28;95468.53;4998817;28;20052;-64
2021/01/21 05:30:53;;;;;;;13.82;8.00;;;;;;;-1.22;89.58;95466.66;4991600;28;20042;-64
2021/01/21 05:33:20;;;;;;;15.00;7.70;;;;;;;-1.33;89.03;95476.16;5008554;28;20136;-65
2021/01/21 05:35:48;;;;;;;9.82;6.95;;;;;;;-1.38;88.79;95469.06;5015349;28;20410;-63
2021/01/21 05:38:13;;;;;;;11.82;7.13;;;;;;;-1.38;89.36;95469.84;5011710;28;20037;-63
2021/01/21 05:40:44;;;;;;;13.00;7.22;;;;;;;-1.28;89.64;95474.09;5013668;28;20353;-63
2021/01/21 05:43:09;;;;;;;12.23;7.65;;;;;;;-1.12;88.83;95482.41;5017379;28;20103;-63
2021/01/21 05:45:35;;;;;;;13.35;7.45;;;;;;;-0.92;87.29;95485.53;5022325;28;20045;-62
2021/01/21 05:48:02;;;;;;;11.23;6.22;;;;;;;-0.81;86.41;95487.53;5017076;28;20053;-63
2021/01/21 05:50:29;;;;;;;9.65;6.85;;;;;;;-0.73;85.98;95485.13;5014240;28;20041;-64
2021/01/21 05:52:56;;;;;;;12.13;7.03;;;;;;;-0.73;85.76;95485.91;5016193;28;20045;-64
2021/01/21 05:55:31;;;;;;;10.68;6.57;;;;;;;-0.68;85.57;95499.19;5015737;28;20586;-64
2021/01/21 05:57:57;;;;;;;9.88;6.63;;;;;;;-0.75;85.67;95498.13;5021568;28;20046;-63
2021/01/21 06:00:26;;;;;;;10.68;7.00;;;;;;;-0.82;85.47;95493.22;5015881;28;20906;-63
2021/01/21 06:02:53;;;;;;;11.38;6.78;;;;;;;-0.86;86.20;95498.47;5019033;28;20041;-64
2021/01/21 06:05:22;;;;;;;12.82;7.25;;;;;;;-0.94;87.63;95501.97;5017907;28;20390;-63
2021/01/21 06:07:49;;;;;;;13.60;7.80;;;;;;;-0.97;87.67;95510.69;5031403;28;20469;-64
2021/01/21 06:10:15;;;;;;;12.93;7.55;;;;;;;-0.98;88.57;95506.41;5016740;28;20060;-63
2021/01/21 06:12:51;;;;;;;15.88;8.57;;;;;;;-1.03;89.07;95501.22;5021622;28;20053;-63
2021/01/21 06:15:18;;;;;;;14.48;8.82;;;;;;;-0.87;89.65;95496.09;5016094;28;20099;-60
2021/01/21 06:17:48;;;;;;;15.63;8.73;;;;;;;-0.83;89.00;95495.13;4987068;28;20503;-62
2021/01/21 06:20:15;;;;;;;10.60;7.15;;;;;;;-0.82;89.17;95504.78;5013171;28;20051;-63
2021/01/21 06:22:42;;;;;;;11.05;7.20;;;;;;;-0.87;89.04;95506.84;5014984;28;20150;-61
2021/01/21 06:25:16;;;;;;;13.27;7.75;;;;;;;-0.88;89.31;95518.69;5018430;28;20065;-62
2021/01/21 06:27:43;;;;;;;10.98;6.85;;;;;;;-0.70;89.03;95508.66;5002887;28;20372;-62
2021/01/21 06:30:13;;;;;;;12.02;6.22;;;;;;;-0.55;87.84;95518.13;5012454;28;20041;-63
2021/01/21 06:32:56;;;;;;;16.35;6.80;;;;;;;-0.54;87.26;95504.34;5020177;28;20109;-62
2021/01/21 06:35:22;;;;;;;12.68;7.07;;;;;;;-0.52;87.12;95504.00;4996256;28;20150;-62
2021/01/21 06:37:52;;;;;;;11.90;6.68;;;;;;;-0.46;87.28;95519.63;5019527;28;20041;-63
2021/01/21 06:40:20;;;;;;;11.65;6.90;;;;;;;-0.50;87.62;95529.47;5010849;28;20041;-63
2021/01/21 06:42:55;;;;;;;10.27;6.63;;;;;;;-0.36;86.77;95528.44;5024110;28;20052;-62
2021/01/21 06:45:21;;;;;;;12.68;5.90;;;;;;;-0.36;87.14;95521.19;5015709;28;20029;-63
2021/01/21 06:47:47;;;;;;;10.43;5.07;;;;;;;-0.32;87.07;95526.72;5020479;28;20095;-63
2021/01/21 06:50:13;;;;;;;6.82;5.03;;;;;;;-0.33;86.80;95519.75;5012862;28;20360;-64
2021/01/21 06:52:40;;;;;;;9.32;5.20;;;;;;;-0.25;88.66;95516.22;4994427;28;20084;-64
2021/01/21 06:55:10;;;;;;;10.18;5.18;;;;;;;-0.30;87.36;95525.25;5005778;28;20049;-62
2021/01/21 06:57:35;;;;;;;11.05;5.55;;;;;;;-0.34;86.49;95528.91;5004483;28;20374;-65
2021/01/21 07:00:07;;;;;;;8.68;5.80;;;;;;;-0.37;86.68;95506.16;5023156;28;20044;-64
2021/01/21 07:02:45;;;;;;;8.00;5.03;;;;;;;-0.18;85.54;95505.72;5029117;28;20054;-64
2021/01/21 07:05:22;;;;;;;10.50;4.97;;;;;;;-0.17;85.23;95511.91;4996923;28;20495;-64
2021/01/21 07:07:56;;;;;;;10.05;4.55;;;;;;;-0.15;85.57;95523.13;5018877;28;20045;-64
2021/01/21 07:10:42;;;;;;;10.48;5.38;;;;;;;-0.01;84.21;95519.06;5015131;28;20072;-65
2021/01/21 07:13:09;;;;;;;7.28;4.93;;;;;;;-0.34;85.18;95527.03;5015313;28;20450;-63
2021/01/21 07:15:49;;;;;;;11.18;7.03;;;;;;;-0.60;86.34;95519.06;5019876;28;20095;-65
2021/01/21 07:18:23;;;;;;;9.48;5.97;;;;;;;-0.60;86.51;95519.06;5019538;28;20038;-65
2021/01/21 07:21:02;;;;;;;11.32;5.90;;;;;;;-0.44;86.26;95513.94;5022316;28;20042;-65
2021/01/21 07:23:48;;;;;;;12.20;5.63;;;;;;;-0.25;85.93;95521.59;5027388;28;20053;-65
2021/01/21 07:26:30;;;;;;;9.85;5.70;;;;;;;-0.07;84.94;95515.00;5015422;28;20045;-65
2021/01/21 07:29:12;;;;;;;10.93;5.65;;;;;;;0.12;83.55;95508.38;5001344;28;20041;-63
2021/01/21 07:31:52;;;;;;;11.32;5.30;;;;;;;0.10;83.73;95508.69;5013185;28;20073;-66
2021/01/21 07:34:28;;;;;;;10.85;5.70;;;;;;;0.13;83.90;95512.66;5011113;28;20041;-64
2021/01/21 07:37:12;;;;;;;12.52;5.75;;;;;;;0.17;84.04;95533.19;5022635;28;20053;-66
2021/01/21 07:39:59;;;;;;;9.93;5.00;;;;;;;0.30;83.74;95530.56;5012479;28;20131;-64
2021/01/21 07:42:34;;;;;;;11.63;4.90;;;;;;;0.47;81.72;95533.13;5013314;28;20050;-66
2021/01/21 07:45:00;;;;;;;11.93;6.97;;;;;;;0.47;82.53;95530.44;5022293;28;20041;-66
2021/01/21 07:47:37;;;;;;;11.93;6.82;;;;;;;0.49;82.26;95527.41;5021741;28;20549;-65
2021/01/21 07:50:32;;;;;;;20.75;9.68;;;;;;;0.18;83.75;95529.38;5022899;28;20073;-62
2021/01/21 07:53:00;;;;;;;14.27;8.75;;;;;;;0.34;83.87;95531.47;5022289;28;20068;-66
2021/01/21 07:55:28;;;;;;;13.30;7.40;;;;;;;0.50;83.03;95534.38;5015064;28;20052;-64
2021/01/21 07:58:13;;;;;;;13.13;7.65;;;;;;;0.74;82.13;95549.88;5024199;28;20390;-66
2021/01/21 08:00:38;;;;;;;12.15;7.57;;;;;;;0.93;80.88;95550.13;5023930;28;20050;-66
2021/01/21 08:03:03;;;;;;;11.25;6.95;;;;;;;0.95;80.93;95541.72;5022699;28;20498;-65
2021/01/21 08:05:29;;;;;;;17.58;9.20;;;;;;;0.87;80.29;95534.50;5019491;28;20053;-64
2021/01/21 08:07:56;;;;;;;12.25;7.07;;;;;;;0.90;80.56;95542.72;5016234;28;20057;-64
2021/01/21 08:10:26;;;;;;;15.90;8.70;;;;;;;1.06;80.12;95542.06;5016129;28;20072;-66
2021/01/21 08:12:59;;;;;;;13.07;7.50;;;;;;;1.27;79.15;95550.91;5010403;28;20042;-66
2021/01/21 08:15:27;;;;;;;19.50;8.85;;;;;;;1.48;77.99;95541.94;5009907;28;20766;-64
2021/01/21 08:17:53;;;;;;;59.83;22.13;;;;;;;1.54;77.62;95529.78;5022977;28;20115;-64
2021/01/21 08:20:21;;;;;;;22.80;10.65;;;;;;;1.71;78.11;95534.16;5017865;28;20136;-66
2021/01/21 08:22:55;;;;;;;24.00;9.43;;;;;;;1.91;77.92;95546.78;5010239;28;20041;-65
2021/01/21 08:25:23;;;;;;;13.07;7.13;;;;;;;1.98;76.96;95534.63;5016026;28;20134;-65
2021/01/21 08:27:50;;;;;;;14.88;7.60;;;;;;;1.90;76.84;95536.31;5021877;28;20049;-65
2021/01/21 08:30:21;;;;;;;11.60;7.18;;;;;;;2.01;76.81;95536.63;5017392;28;20037;-64
2021/01/21 08:32:52;;;;;;;10.98;6.28;;;;;;;1.68;77.31;95532.94;5023119;28;20033;-64
2021/01/21 08:35:23;;;;;;;16.83;6.72;;;;;;;2.14;76.41;95532.00;5014655;28;20528;-65
2021/01/21 08:37:51;;;;;;;14.60;6.53;;;;;;;1.99;76.64;95533.50;5012344;28;20665;-64
2021/01/21 08:40:18;;;;;;;12.25;6.97;;;;;;;2.23;74.92;95536.16;5015524;28;20136;-64
2021/01/21 08:42:48;;;;;;;17.83;9.35;;;;;;;2.67;74.98;95533.53;5019593;28;20088;-66
2021/01/21 08:45:14;;;;;;;14.60;8.00;;;;;;;3.00;73.69;95527.09;5018651;28;20041;-65
2021/01/21 08:47:44;;;;;;;15.95;7.43;;;;;;;3.15;73.65;95528.25;5026746;28;20042;-66
2021/01/21 08:50:10;;;;;;;14.15;7.03;;;;;;;2.98;74.68;95544.81;5019208;28;20124;-63
2021/01/21 08:52:54;;;;;;;12.20;6.47;;;;;;;2.92;75.11;95551.56;5021677;28;20046;-65
2021/01/21 08:55:19;;;;;;;19.67;7.57;;;;;;;3.01;75.24;95541.41;5014506;28;20049;-66
2021/01/21 08:58:03;;;;;;;13.20;8.35;;;;;;;3.17;74.26;95544.94;5022443;28;20046;-65
2021/01/21 09:00:30;;;;;;;16.30;8.40;;;;;;;3.19;73.90;95544.59;5021561;28;20053;-63
2021/01/21 09:02:56;;;;;;;13.15;8.45;;;;;;;3.55;73.34;95542.78;5023086;28;20743;-65
2021/01/21 09:05:21;;;;;;;18.13;12.70;;;;;;;3.53;71.70;95542.31;5018191;28;20216;-65
2021/01/21 09:08:08;;;;;;;18.02;11.07;;;;;;;3.62;71.76;95543.75;5022043;28;20128;-65
2021/01/21 09:10:43;;;;;;;15.00;7.72;;;;;;;4.66;68.50;95529.00;5021889;28;20041;-65
2021/01/21 09:13:10;;;;;;;12.75;7.55;;;;;;;4.20;68.81;95516.03;5016869;28;20053;-63
2021/01/21 09:15:56;;;;;;;12.10;6.45;;;;;;;4.14;71.34;95522.88;5022601;28;20038;-66
2021/01/21 09:18:23;;;;;;;15.65;9.25;;;;;;;4.72;70.52;95532.22;5013947;28;20080;-65
2021/01/21 09:20:49;;;;;;;18.63;8.75;;;;;;;6.12;65.00;95532.75;5022419;28;20053;-65
2021/01/21 09:23:20;;;;;;;14.45;7.97;;;;;;;7.19;62.51;95539.91;5017318;28;20478;-64
2021/01/21 09:25:49;;;;;;;13.07;7.90;;;;;;;8.17;58.71;95523.22;5021575;28;20037;-65
2021/01/21 09:28:16;;;;;;;10.70;6.75;;;;;;;8.18;57.21;95525.56;5016949;28;20045;-65
2021/01/21 09:30:44;;;;;;;9.05;5.72;;;;;;;7.95;59.19;95533.22;5021449;28;20034;-64
2021/01/21 09:33:10;;;;;;;23.63;10.93;;;;;;;8.48;57.63;95535.53;5010818;28;20041;-66
2021/01/21 09:35:37;;;;;;;19.27;9.82;;;;;;;8.65;56.89;95542.25;5002562;28;20469;-65
2021/01/21 09:38:03;;;;;;;14.48;7.15;;;;;;;8.94;54.74;95540.44;5000531;28;20088;-65
2021/01/21 09:40:30;;;;;;;14.05;7.80;;;;;;;8.72;54.65;95545.03;4998532;28;20050;-66
2021/01/21 09:42:58;;;;;;;11.40;5.95;;;;;;;8.46;56.79;95550.72;5001805;28;20041;-65
2021/01/21 09:45:25;;;;;;;12.27;6.55;;;;;;;8.38;56.70;95560.78;4996759;28;20675;-65
2021/01/21 09:47:50;;;;;;;11.20;6.18;;;;;;;8.36;57.41;95568.56;4989115;28;20052;-65
2021/01/21 09:50:18;;;;;;;11.90;5.53;;;;;;;8.50;57.26;95563.22;5000070;28;20041;-65
2021/01/21 09:52:43;;;;;;;9.60;5.55;;;;;;;9.31;56.27;95550.31;5003887;28;20042;-64
2021/01/21 09:55:09;;;;;;;9.68;5.20;;;;;;;10.16;54.03;95547.31;4995832;28;20042;-63
2021/01/21 09:57:35;;;;;;;13.30;5.07;;;;;;;10.59;51.96;95547.25;5001417;28;20042;-65
2021/01/21 10:00:00;;;;;;;11.63;5.80;;;;;;;10.86;50.13;95539.38;5001315;28;20104;-66
2021/01/21 10:02:26;;;;;;;11.13;6.22;;;;;;;12.12;45.54;95542.19;4999231;28;20045;-66
2021/01/21 10:04:52;;;;;;;12.32;5.57;;;;;;;13.38;43.76;95533.41;5021324;28;20136;-66
2021/01/21 10:07:17;;;;;;;12.60;5.40;;;;;;;14.38;40.41;95535.81;5017221;28;20064;-65
2021/01/21 10:09:43;;;;;;;9.13;4.60;;;;;;;15.26;37.78;95531.03;5021719;28;20041;-66
2021/01/21 10:12:09;;;;;;;12.95;4.30;;;;;;;16.08;36.37;95535.97;5016132;28;20053;-66
2021/01/21 10:14:35;;;;;;;11.20;4.22;;;;;;;16.02;36.40;95538.47;5021920;28;20049;-66
2021/01/21 10:17:07;;;;;;;4.45;2.70;;;;;;;15.82;35.96;95533.78;5021225;28;20071;-65
2021/01/21 10:19:33;;;;;;;5.22;2.25;;;;;;;15.38;37.26;95529.63;5019859;28;20080;-66
2021/01/21 10:21:58;;;;;;;3.30;2.22;;;;;;;14.66;37.79;95537.31;5021856;28;20133;-66
2021/01/21 10:24:23;;;;;;;5.15;2.35;;;;;;;13.72;40.60;95535.28;5001903;28;20041;-64
2021/01/21 10:26:49;;;;;;;4.90;2.25;;;;;;;12.66;42.62;95538.13;5022997;28;20041;-66
2021/01/21 10:29:15;;;;;;;5.70;2.55;;;;;;;12.36;42.99;95532.16;5014873;28;20430;-66
2021/01/21 10:31:40;;;;;;;5.43;2.42;;;;;;;11.35;46.13;95529.34;5022071;28;20490;-65
2021/01/21 10:34:07;;;;;;;3.90;2.28;;;;;;;11.34;46.52;95532.50;5012052;28;20056;-64
2021/01/21 10:36:33;;;;;;;9.85;3.00;;;;;;;11.06;47.61;95521.28;5022921;28;20069;-64
2021/01/21 10:38:58;;;;;;;9.45;3.90;;;;;;;11.34;46.68;95529.75;5023002;28;20046;-65
2021/01/21 10:41:24;;;;;;;20.85;8.75;;;;;;;11.20;47.36;95531.41;5017114;28;20573;-66
2021/01/21 10:43:49;;;;;;;23.83;9.32;;;;;;;11.17;47.97;95523.19;5021376;28;20091;-66
2021/01/21 10:46:15;;;;;;;11.43;5.85;;;;;;;11.32;47.20;95527.41;5014806;28;20065;-65
2021/01/21 10:48:40;;;;;;;13.07;6.72;;;;;;;11.14;48.64;95532.19;5022443;28;20071;-65
2021/01/21 10:51:05;;;;;;;10.52;6.43;;;;;;;10.69;50.12;95530.00;4998904;28;20129;-65
2021/01/21 10:53:31;;;;;;;14.02;7.38;;;;;;;10.31;51.66;95529.72;5001732;28;20045;-66
2021/01/21 10:55:56;;;;;;;10.27;6.93;;;;;;;9.70;53.41;95522.25;5017849;28;20128;-65
2021/01/21 10:58:21;;;;;;;11.60;7.15;;;;;;;9.12;55.29;95529.56;5014981;28;20057;-64
2021/01/21 11:00:47;;;;;;;13.35;7.57;;;;;;;8.82;56.37;95526.34;5020788;28;20515;-64
2021/01/21 11:03:13;;;;;;;13.80;7.63;;;;;;;8.65;56.51;95520.41;5015184;28;20033;-65
2021/01/21 11:05:43;;;;;;;14.05;6.75;;;;;;;8.35;58.25;95521.38;5020047;28;20076;-63
2021/01/21 11:08:10;;;;;;;13.15;7.13;;;;;;;8.21;58.82;95530.28;5012690;28;20033;-63
2021/01/21 11:10:36;;;;;;;13.65;7.55;;;;;;;8.14;59.93;95548.53;5020433;28;20042;-65
2021/01/21 11:13:02;;;;;;;22.60;7.63;;;;;;;7.96;60.36;95543.75;5016995;28;20048;-63
2021/01/21 11:15:27;;;;;;;16.90;8.05;;;;;;;7.97;61.16;95541.78;5016220;28;20410;-66
2021/01/21 11:17:52;;;;;;;11.10;7.25;;;;;;;8.22;60.81;95537.28;5020010;28;20076;-66
2021/01/21 11:20:18;;;;;;;19.45;8.07;;;;;;;7.96;62.23;95534.75;5013638;28;20069;-66
2021/01/21 11:22:43;;;;;;;27.00;16.08;;;;;;;8.09;62.01;95532.53;5019875;28;20046;-65
2021/01/21 11:25:10;;;;;;;19.80;9.90;;;;;;;8.46;60.25;95518.75;5014629;28;20455;-65
2021/01/21 11:27:37;;;;;;;17.45;8.80;;;;;;;8.83;60.12;95515.03;5020402;28;20124;-65
2021/01/21 11:30:08;;;;;;;16.35;8.40;;;;;;;8.93;58.99;95514.31;5018231;28;20045;-65
2021/01/21 11:32:33;;;;;;;21.65;10.43;;;;;;;8.87;58.66;95518.56;5026556;28;20099;-65
2021/01/21 11:34:59;;;;;;;17.70;10.23;;;;;;;8.73;59.15;95518.50;5021332;28;20033;-65